Time;durP1;ratioP1;P1;durP2;ratioP2;P2;SDS_P1;SDS_P2;PMS_P1;PMS_P2;Temp;Humidity;BMP_temperature;BMP_pressure;BME280_temperature;BME280_humidity;BME280_pressure;Samples;Min_cycle;Max_cycle;Signal;HPM_P1;HPM_P2
2022/09/22 00:01:10;;;;;;;12.48;7.07;;;9.10;99.90;;;;;;5061613;28;20037;-73
2022/09/22 00:03:39;;;;;;;13.20;7.47;;;9.10;99.90;;;;;;5066340;28;20047;-73
2022/09/22 00:06:07;;;;;;;11.48;7.45;;;9.10;99.90;;;;;;5066429;28;20063;-73
2022/09/22 00:08:37;;;;;;;12.52;7.60;;;9.10;99.90;;;;;;5034143;28;20581;-72
2022/09/22 00:11:17;;;;;;;13.25;7.80;;;9.10;99.90;;;;;;5048921;28;20036;-73
2022/09/22 00:13:52;;;;;;;12.18;7.50;;;9.10;99.90;;;;;;5069786;28;20040;-72
2022/09/22 00:16:25;;;;;;;15.85;7.32;;;9.10;99.90;;;;;;5047342;28;20041;-72
2022/09/22 00:18:51;;;;;;;11.93;7.05;;;9.10;99.90;;;;;;5069941;28;20124;-72
2022/09/22 00:21:19;;;;;;;11.43;7.18;;;9.10;99.90;;;;;;5067860;28;20103;-72
2022/09/22 00:23:46;;;;;;;9.90;6.72;;;9.10;99.90;;;;;;5070692;28;20482;-72
2022/09/22 00:26:20;;;;;;;11.80;7.57;;;9.10;99.90;;;;;;5061071;28;20041;-72
2022/09/22 00:28:47;;;;;;;11.55;6.97;;;9.10;99.90;;;;;;5050720;28;20098;-72
2022/09/22 00:31:19;;;;;;;13.00;7.25;;;9.00;99.90;;;;;;5063110;28;20044;-73
2022/09/22 00:33:46;;;;;;;17.92;7.18;;;9.00;99.90;;;;;;5068387;28;20044;-72
2022/09/22 00:36:12;;;;;;;10.93;6.97;;;9.00;99.90;;;;;;5070633;28;20040;-73
2022/09/22 00:38:39;;;;;;;12.90;7.57;;;8.90;99.90;;;;;;5067806;28;20374;-72
2022/09/22 00:41:09;;;;;;;11.88;7.00;;;8.90;99.90;;;;;;5063672;28;20530;-73
2022/09/22 00:43:37;;;;;;;9.77;6.22;;;8.90;99.90;;;;;;5074815;28;20080;-73
2022/09/22 00:46:25;;;;;;;9.52;5.55;;;8.90;99.90;;;;;;5068387;28;20048;-74
2022/09/22 00:48:58;;;;;;;11.02;6.75;;;8.90;99.90;;;;;;5068027;28;20096;-74
2022/09/22 00:51:30;;;;;;;10.75;6.28;;;8.80;99.90;;;;;;5062961;28;20090;-73
2022/09/22 00:53:58;;;;;;;9.95;6.15;;;8.80;99.90;;;;;;5072877;28;20108;-73
2022/09/22 00:56:31;;;;;;;10.65;5.93;;;8.80;99.90;;;;;;5038402;28;20053;-73
2022/09/22 00:59:05;;;;;;;10.80;6.22;;;8.80;99.90;;;;;;5065909;28;20059;-73
2022/09/22 01:01:35;;;;;;;8.18;5.40;;;8.80;99.90;;;;;;5029612;28;20371;-74
2022/09/22 01:04:01;;;;;;;8.43;5.75;;;8.80;99.90;;;;;;5050115;28;20072;-74
2022/09/22 01:06:27;;;;;;;10.65;5.60;;;8.70;99.90;;;;;;5069586;28;20470;-74
2022/09/22 01:08:55;;;;;;;11.27;5.15;;;8.70;99.90;;;;;;5063767;28;20063;-73
2022/09/22 01:11:24;;;;;;;9.67;5.00;;;8.70;99.90;;;;;;5069673;28;20406;-74
2022/09/22 01:14:17;;;;;;;10.63;5.13;;;8.60;99.90;;;;;;5071165;28;20458;-73
2022/09/22 01:17:19;;;;;;;7.45;4.50;;;8.70;99.90;;;;;;5068857;28;20044;-73
2022/09/22 01:20:08;;;;;;;11.07;4.32;;;8.60;99.90;;;;;;5068352;28;20048;-73
2022/09/22 01:22:54;;;;;;;9.45;4.43;;;8.70;99.90;;;;;;5065742;28;20411;-73
2022/09/22 01:25:41;;;;;;;8.43;4.68;;;8.60;99.90;;;;;;5068674;28;20040;-73
2022/09/22 01:28:30;;;;;;;8.30;4.53;;;8.60;99.90;;;;;;5066727;28;20401;-73
2022/09/22 01:30:58;;;;;;;;;;;8.60;99.90;;;;;;5062708;28;20132;-73
2022/09/22 01:33:36;;;;;;;9.82;4.03;;;8.60;99.90;;;;;;5059951;28;19935;-73
2022/09/22 01:36:10;;;;;;;10.75;4.05;;;8.60;99.90;;;;;;5107784;22;20044;-84
2022/09/22 01:39:18;;;;;;;8.15;3.72;;;8.60;99.90;;;;;;5070375;28;20032;-83
2022/09/22 01:42:41;;;;;;;12.40;4.30;;;8.50;99.90;;;;;;5101601;28;20050;-83
2022/09/22 01:45:17;;;;;;;7.50;3.90;;;8.50;99.90;;;;;;5106574;28;20032;-82
2022/09/22 01:48:12;;;;;;;8.93;4.00;;;8.50;99.90;;;;;;5084882;28;20042;-84
2022/09/22 01:51:07;;;;;;;6.68;3.90;;;8.50;99.90;;;;;;5102963;28;20038;-83
2022/09/22 01:53:50;;;;;;;6.00;3.40;;;8.50;99.90;;;;;;5105404;28;20079;-81
2022/09/22 01:56:26;;;;;;;8.38;4.45;;;9.50;99.90;;;;;;5071785;28;20071;-83
2022/09/22 01:59:08;;;;;;;9.85;4.07;;;9.40;99.90;;;;;;5111675;28;20028;-82
2022/09/22 02:01:46;;;;;;;13.60;4.65;;;8.50;99.90;;;;;;5104770;28;20044;-80
2022/09/22 02:04:44;;;;;;;7.22;3.95;;;9.30;99.90;;;;;;5099737;23;20072;-69
2022/09/22 02:07:23;;;;;;;8.65;4.03;;;8.50;99.90;;;;;;5073500;28;20098;-71
2022/09/22 02:09:50;;;;;;;9.05;3.85;;;8.50;99.90;;;;;;5097543;28;20451;-69
2022/09/22 02:12:18;;;;;;;12.52;4.18;;;8.50;99.90;;;;;;5103191;28;20066;-70
2022/09/22 02:14:45;;;;;;;9.48;3.85;;;8.60;99.90;;;;;;5111369;28;20040;-69
2022/09/22 02:17:12;;;;;;;11.35;3.70;;;8.60;99.90;;;;;;5104823;28;20036;-69
2022/09/22 02:19:40;;;;;;;7.68;4.03;;;8.50;99.90;;;;;;5103196;28;20040;-70
2022/09/22 02:22:08;;;;;;;13.20;4.03;;;8.50;99.90;;;;;;5095193;28;20036;-71
2022/09/22 02:24:38;;;;;;;8.52;3.78;;;8.50;99.90;;;;;;5091676;28;20024;-71
2022/09/22 02:27:13;;;;;;;6.85;3.90;;;8.50;99.90;;;;;;5108995;28;20036;-71
2022/09/22 02:30:01;;;;;;;11.82;4.13;;;8.50;99.90;;;;;;5084065;28;20072;-71
2022/09/22 02:32:32;;;;;;;7.38;4.40;;;8.50;99.90;;;;;;5107935;28;20048;-69
2022/09/22 02:34:59;;;;;;;10.15;4.30;;;8.50;99.90;;;;;;5087849;28;20045;-69
2022/09/22 02:37:49;;;;;;;9.88;3.80;;;8.40;99.90;;;;;;5073775;28;20059;-70
2022/09/22 02:40:39;;;;;;;6.93;3.90;;;8.40;99.90;;;;;;5099517;28;20033;-71
2022/09/22 02:43:30;;;;;;;9.48;3.70;;;8.40;99.90;;;;;;5091036;28;20066;-73
2022/09/22 02:46:24;;;;;;;9.85;3.75;;;8.40;99.90;;;;;;5101291;28;20336;-71
2022/09/22 02:48:57;;;;;;;9.05;3.72;;;8.30;99.90;;;;;;5083028;28;20055;-70
2022/09/22 02:51:22;;;;;;;6.95;3.60;;;8.40;99.90;;;;;;5096270;28;20041;-70
2022/09/22 02:53:48;;;;;;;8.43;3.47;;;8.40;99.90;;;;;;5089923;28;20074;-70
2022/09/22 02:56:14;;;;;;;9.15;3.47;;;8.30;99.90;;;;;;5073793;28;20048;-70
2022/09/22 02:58:40;;;;;;;11.23;4.20;;;8.30;99.90;;;;;;5089879;28;20043;-71
2022/09/22 03:01:05;;;;;;;7.57;3.75;;;8.30;99.90;;;;;;5089188;28;20044;-72
2022/09/22 03:03:31;;;;;;;10.63;4.18;;;8.30;99.90;;;;;;5075162;28;20041;-71
2022/09/22 03:05:57;;;;;;;6.95;4.10;;;8.30;99.90;;;;;;5091394;28;20052;-70
2022/09/22 03:08:23;;;;;;;8.63;4.38;;;8.30;99.90;;;;;;5067327;28;20049;-68
2022/09/22 03:10:48;;;;;;;7.10;3.83;;;8.30;99.90;;;;;;5091471;28;20040;-72
2022/09/22 03:13:14;;;;;;;8.88;4.25;;;8.30;99.90;;;;;;5084186;28;20052;-70
2022/09/22 03:15:40;;;;;;;9.50;3.97;;;8.30;99.90;;;;;;5098104;28;20092;-70
2022/09/22 03:18:05;;;;;;;11.23;3.55;;;8.20;99.90;;;;;;5074980;28;20056;-70
2022/09/22 03:20:31;;;;;;;8.85;4.38;;;8.20;99.90;;;;;;5085488;28;20085;-71
2022/09/22 03:22:57;;;;;;;11.60;4.30;;;8.20;99.90;;;;;;5091552;28;20716;-70
2022/09/22 03:25:23;;;;;;;14.18;4.80;;;8.20;99.90;;;;;;5072659;28;20063;-71
2022/09/22 03:27:49;;;;;;;8.85;4.13;;;8.20;99.90;;;;;;5095792;28;20043;-70
2022/09/22 03:30:15;;;;;;;7.18;3.90;;;8.10;99.90;;;;;;5075861;28;20037;-71
2022/09/22 03:32:41;;;;;;;13.32;4.40;;;8.10;99.90;;;;;;5090091;28;20149;-71
2022/09/22 03:35:07;;;;;;;8.15;4.03;;;8.10;99.90;;;;;;5087936;28;20509;-70
2022/09/22 03:37:33;;;;;;;12.10;4.20;;;8.10;99.90;;;;;;5080849;28;20036;-70
2022/09/22 03:39:59;;;;;;;7.70;3.83;;;8.00;99.90;;;;;;5086522;28;20110;-70
2022/09/22 03:42:25;;;;;;;9.55;3.80;;;8.10;99.90;;;;;;5086715;28;20032;-72
2022/09/22 03:44:51;;;;;;;8.63;4.05;;;8.00;99.90;;;;;;5085739;28;20052;-71
2022/09/22 03:47:16;;;;;;;11.82;4.20;;;8.10;99.90;;;;;;5089474;28;20045;-70
2022/09/22 03:49:42;;;;;;;7.07;4.07;;;8.00;99.90;;;;;;5088977;28;20037;-70
2022/09/22 03:52:08;;;;;;;9.77;3.85;;;8.00;99.90;;;;;;5076269;28;20056;-70
2022/09/22 03:54:35;;;;;;;8.38;4.38;;;8.00;99.90;;;;;;5093798;28;20105;-71
2022/09/22 03:57:02;;;;;;;12.60;4.25;;;8.00;99.90;;;;;;5076212;28;20052;-71
2022/09/22 03:59:28;;;;;;;9.73;4.18;;;7.90;99.90;;;;;;5094528;28;20029;-71
2022/09/22 04:01:55;;;;;;;8.32;4.20;;;8.00;99.90;;;;;;5093338;28;20139;-71
2022/09/22 04:04:20;;;;;;;6.63;3.75;;;7.90;99.90;;;;;;5088534;28;20045;-70
2022/09/22 04:06:46;;;;;;;12.45;4.95;;;7.90;99.90;;;;;;5089274;28;20072;-72
2022/09/22 04:09:12;;;;;;;8.98;4.53;;;7.90;99.90;;;;;;5089482;28;20029;-70
2022/09/22 04:11:37;;;;;;;11.98;4.13;;;7.90;99.90;;;;;;5091789;28;20063;-70
2022/09/22 04:14:06;;;;;;;8.15;4.60;;;7.80;99.90;;;;;;5094285;28;20047;-70
2022/09/22 04:16:31;;;;;;;;;;;7.80;99.90;;;;;;5084175;28;20044;-70
2022/09/22 04:18:57;;;;;;;10.18;4.55;;;7.70;99.90;;;;;;5081007;28;19948;-72
2022/09/22 04:21:23;;;;;;;10.85;4.30;;;7.70;99.90;;;;;;5064871;28;20043;-70
2022/09/22 04:23:48;;;;;;;13.18;4.68;;;7.70;99.90;;;;;;5086817;28;20036;-71
2022/09/22 04:26:14;;;;;;;10.50;4.30;;;7.70;99.90;;;;;;5077470;28;20039;-69
2022/09/22 04:28:40;;;;;;;8.25;4.05;;;7.70;99.90;;;;;;5093528;28;20033;-68
2022/09/22 04:31:05;;;;;;;9.32;4.20;;;7.70;99.90;;;;;;5086316;28;20032;-72
2022/09/22 04:33:31;;;;;;;7.72;4.15;;;7.70;99.90;;;;;;5087126;28;20029;-69
2022/09/22 04:35:57;;;;;;;6.57;4.07;;;7.60;99.90;;;;;;5090986;28;20051;-70
2022/09/22 04:38:23;;;;;;;6.80;4.40;;;7.90;99.90;;;;;;5087646;28;20045;-70
2022/09/22 04:40:50;;;;;;;9.90;4.38;;;7.60;99.90;;;;;;5092052;28;20024;-72
2022/09/22 04:43:17;;;;;;;7.60;4.05;;;7.60;99.90;;;;;;5088714;28;20069;-70
2022/09/22 04:45:47;;;;;;;9.57;4.60;;;7.60;99.90;;;;;;5067516;28;20029;-70
2022/09/22 04:48:14;;;;;;;10.52;4.30;;;7.50;99.90;;;;;;5081897;28;20040;-71
2022/09/22 04:50:40;;;;;;;8.27;4.00;;;7.60;99.90;;;;;;5085028;28;20073;-72
2022/09/22 04:53:06;;;;;;;12.48;4.35;;;7.50;99.90;;;;;;5084321;28;20048;-69
2022/09/22 04:55:33;;;;;;;21.63;9.43;;;7.50;99.90;;;;;;5067105;28;20045;-69
2022/09/22 04:57:59;;;;;;;10.73;6.20;;;7.50;99.90;;;;;;5083052;28;20079;-70
2022/09/22 05:00:26;;;;;;;11.23;5.63;;;7.50;99.90;;;;;;5081083;28;20222;-70
2022/09/22 05:02:53;;;;;;;13.52;5.97;;;7.50;99.90;;;;;;5084415;28;20052;-72
2022/09/22 05:05:18;;;;;;;12.75;5.32;;;7.40;99.90;;;;;;5064852;28;20080;-70
2022/09/22 05:07:47;;;;;;;11.27;4.38;;;7.40;99.90;;;;;;5065697;28;20033;-69
2022/09/22 05:10:19;;;;;;;16.13;5.45;;;7.40;99.90;;;;;;5069279;28;20049;-70
2022/09/22 05:12:46;;;;;;;8.90;5.20;;;7.40;99.90;;;;;;5059939;28;20041;-70
2022/09/22 05:15:13;;;;;;;9.82;4.72;;;7.40;99.90;;;;;;5057451;28;20036;-68
2022/09/22 05:17:46;;;;;;;7.38;4.68;;;7.40;99.90;;;;;;5057886;28;20069;-70
2022/09/22 05:20:12;;;;;;;10.98;4.97;;;7.40;99.90;;;;;;5055620;28;20033;-71
2022/09/22 05:22:38;;;;;;;10.85;4.80;;;7.40;99.90;;;;;;5046590;28;20105;-69
2022/09/22 05:25:16;;;;;;;11.90;5.43;;;7.40;99.90;;;;;;5040781;28;20037;-69
2022/09/22 05:27:46;;;;;;;11.65;5.32;;;7.40;99.90;;;;;;5048971;28;20055;-70
2022/09/22 05:30:12;;;;;;;9.35;5.00;;;7.30;99.90;;;;;;5058138;28;20500;-68
2022/09/22 05:32:40;;;;;;;9.38;5.10;;;7.30;99.90;;;;;;5055832;28;20041;-68
2022/09/22 05:35:06;;;;;;;;;;;7.40;99.90;;;;;;5068934;28;20409;-68
2022/09/22 05:37:32;;;;;;;11.48;5.03;;;7.30;99.90;;;;;;5054786;28;19925;-69
2022/09/22 05:39:57;;;;;;;7.50;4.28;;;7.40;99.90;;;;;;5052412;28;20541;-69
2022/09/22 05:42:23;;;;;;;13.50;4.70;;;7.40;99.90;;;;;;5036865;28;20510;-68
2022/09/22 05:44:49;;;;;;;8.40;4.40;;;7.40;99.90;;;;;;5054053;28;20041;-68
2022/09/22 05:47:14;;;;;;;7.63;4.80;;;7.40;99.90;;;;;;5049480;28;20112;-69
2022/09/22 05:49:40;;;;;;;16.83;5.32;;;7.40;99.90;;;;;;5057669;28;20040;-71
2022/09/22 05:52:06;;;;;;;12.80;5.63;;;7.40;99.90;;;;;;5051656;28;20494;-69
2022/09/22 05:54:31;;;;;;;9.25;5.07;;;7.40;99.90;;;;;;5048271;28;20049;-69
2022/09/22 05:56:57;;;;;;;11.90;6.53;;;7.40;99.90;;;;;;5041862;28;20042;-68
2022/09/22 05:59:23;;;;;;;16.00;6.28;;;7.50;99.90;;;;;;5032429;28;20033;-71
2022/09/22 06:01:48;;;;;;;11.05;6.00;;;7.50;99.90;;;;;;5035880;28;20049;-69
2022/09/22 06:04:14;;;;;;;7.72;5.70;;;7.50;99.90;;;;;;5062917;28;20056;-68
2022/09/22 06:06:40;;;;;;;12.70;6.45;;;7.60;99.90;;;;;;5055825;28;20052;-69
2022/09/22 06:09:06;;;;;;;14.68;6.80;;;7.60;99.90;;;;;;5073850;28;20051;-70
2022/09/22 06:11:32;;;;;;;13.57;6.80;;;7.60;99.90;;;;;;5053059;28;20052;-69
2022/09/22 06:13:58;;;;;;;21.10;7.10;;;7.60;99.90;;;;;;5072407;28;20505;-67
2022/09/22 06:16:23;;;;;;;13.38;6.75;;;7.70;99.90;;;;;;5067141;28;20192;-72
2022/09/22 06:18:49;;;;;;;14.85;7.40;;;7.70;99.90;;;;;;5033226;28;20048;-71
2022/09/22 06:21:18;;;;;;;12.38;7.53;;;7.70;99.90;;;;;;5073354;28;20481;-70
2022/09/22 06:23:43;;;;;;;16.65;8.30;;;7.70;99.90;;;;;;5075094;28;20043;-68
2022/09/22 06:26:09;;;;;;;15.60;7.85;;;7.80;99.90;;;;;;5079983;28;20044;-69
2022/09/22 06:28:35;;;;;;;15.63;8.48;;;7.90;99.90;;;;;;5080777;28;20037;-69
2022/09/22 06:31:05;;;;;;;12.93;7.63;;;7.90;99.90;;;;;;5076979;28;20033;-70
2022/09/22 06:33:30;;;;;;;15.07;7.47;;;7.90;99.90;;;;;;5070103;28;20041;-68
2022/09/22 06:36:00;;;;;;;11.50;7.35;;;8.00;99.90;;;;;;5080992;28;20039;-69
2022/09/22 06:38:30;;;;;;;16.88;8.20;;;8.10;99.90;;;;;;5056803;28;20119;-69
2022/09/22 06:41:01;;;;;;;20.08;8.05;;;8.20;99.90;;;;;;5061770;28;20052;-69
2022/09/22 06:43:27;;;;;;;13.93;7.95;;;8.60;99.90;;;;;;5076564;28;20048;-71
2022/09/22 06:45:58;;;;;;;9.93;6.65;;;9.00;99.90;;;;;;5084090;28;20552;-70
2022/09/22 06:48:23;;;;;;;12.68;6.30;;;9.50;99.90;;;;;;5064921;28;20028;-70
2022/09/22 06:50:52;;;;;;;12.63;5.95;;;9.90;99.90;;;;;;5076205;28;20075;-71
2022/09/22 06:53:18;;;;;;;;;;;10.20;99.90;;;;;;5081305;28;21752;-71
2022/09/22 06:55:45;;;;;;;12.23;6.43;;;10.20;99.90;;;;;;5080141;28;19928;-67
2022/09/22 06:58:13;;;;;;;12.15;6.40;;;10.20;99.90;;;;;;5074403;28;20044;-71
2022/09/22 07:00:41;;;;;;;9.82;6.10;;;10.20;99.90;;;;;;5087126;28;20067;-69
2022/09/22 07:03:21;;;;;;;10.88;6.18;;;11.10;99.90;;;;;;5083186;28;20053;-68
2022/09/22 07:05:53;;;;;;;19.60;5.88;;;10.20;99.90;;;;;;5076605;28;20109;-70
2022/09/22 07:08:20;;;;;;;9.52;6.32;;;10.20;99.90;;;;;;5080575;28;20112;-70
2022/09/22 07:10:58;;;;;;;9.40;6.07;;;10.20;99.90;;;;;;5071979;28;20035;-69
2022/09/22 07:13:25;;;;;;;12.40;7.00;;;10.30;99.90;;;;;;5085214;28;20032;-69
2022/09/22 07:15:51;;;;;;;12.80;6.20;;;10.40;99.90;;;;;;5070206;28;20041;-68
2022/09/22 07:18:16;;;;;;;9.02;6.45;;;10.40;99.90;;;;;;5096511;28;20044;-70
2022/09/22 07:20:45;;;;;;;13.32;6.07;;;10.50;99.90;;;;;;5079326;28;20059;-69
2022/09/22 07:23:16;;;;;;;14.60;6.18;;;10.60;99.90;;;;;;5089204;28;20044;-68
2022/09/22 07:25:43;;;;;;;13.85;5.70;;;10.70;99.90;;;;;;5070803;28;20440;-72
2022/09/22 07:28:14;;;;;;;10.82;5.70;;;10.80;99.90;;;;;;5082416;28;20050;-67
2022/09/22 07:30:40;;;;;;;10.57;5.68;;;10.90;99.90;;;;;;5058777;28;20638;-66
2022/09/22 07:33:07;;;;;;;11.43;6.03;;;11.00;99.90;;;;;;5086358;28;20044;-71
2022/09/22 07:35:35;;;;;;;12.05;5.55;;;11.10;99.90;;;;;;5095235;28;20013;-70
2022/09/22 07:38:02;;;;;;;9.30;5.43;;;11.30;99.90;;;;;;5090892;28;20039;-70
2022/09/22 07:40:28;;;;;;;13.98;5.75;;;11.60;99.90;;;;;;5097972;28;20029;-69
2022/09/22 07:42:53;;;;;;;8.35;5.20;;;11.50;99.90;;;;;;5078775;28;20044;-70
2022/09/22 07:45:21;;;;;;;8.93;5.43;;;11.70;99.90;;;;;;5112662;28;20044;-72
2022/09/22 07:50:31;;;;;;;10.80;5.32;;;12.00;99.90;;;;;;5095489;28;20044;-70
2022/09/22 07:52:57;;;;;;;11.63;4.68;;;12.10;99.90;;;;;;5076442;28;20037;-72
2022/09/22 07:55:23;;;;;;;8.40;4.70;;;12.30;99.90;;;;;;5100861;28;20051;-71
2022/09/22 07:57:57;;;;;;;9.45;4.15;;;12.40;99.90;;;;;;5086794;28;20041;-68
2022/09/22 08:00:31;;;;;;;7.35;4.10;;;12.60;99.90;;;;;;5058757;28;20451;-67
2022/09/22 08:02:58;;;;;;;9.10;4.68;;;12.70;99.90;;;;;;5075317;28;20055;-71
2022/09/22 08:05:25;;;;;;;8.52;4.53;;;12.90;99.90;;;;;;5084228;28;20037;-70
2022/09/22 08:07:55;;;;;;;8.63;4.18;;;13.00;99.90;;;;;;5088884;28;20113;-69
2022/09/22 08:10:21;;;;;;;8.13;4.43;;;13.20;99.90;;;;;;5099183;28;20099;-68
2022/09/22 08:12:50;;;;;;;10.80;4.55;;;13.30;99.90;;;;;;5092863;28;20036;-71
2022/09/22 08:15:15;;;;;;;;;;;13.50;99.90;;;;;;5088710;28;20090;-68
2022/09/22 08:17:42;;;;;;;9.63;4.05;;;13.60;99.90;;;;;;5082523;28;20030;-69
2022/09/22 08:20:11;;;;;;;9.50;4.43;;;13.80;99.90;;;;;;5088713;28;20094;-68
2022/09/22 08:22:37;;;;;;;10.65;4.28;;;13.90;99.90;;;;;;5080804;28;20463;-69
2022/09/22 08:27:40;;;;;;;8.23;4.00;;;14.30;99.90;;;;;;2453740;22;20056;-74
2022/09/22 08:30:06;;;;;;;9.20;3.83;;;14.50;99.90;;;;;;5079137;28;20048;-73
2022/09/22 08:32:35;;;;;;;7.82;3.95;;;14.60;99.90;;;;;;5065945;28;20070;-72
2022/09/22 08:35:02;;;;;;;8.88;3.58;;;14.80;99.90;;;;;;5058158;28;20045;-72
2022/09/22 08:37:31;;;;;;;5.68;3.90;;;14.90;99.90;;;;;;5073617;28;20056;-72
2022/09/22 08:39:57;;;;;;;8.18;3.78;;;15.10;99.90;;;;;;5046618;28;20119;-71
2022/09/22 08:42:27;;;;;;;9.00;3.03;;;15.30;99.90;;;;;;5054291;28;20045;-70
2022/09/22 08:45:02;;;;;;;7.78;3.00;;;15.40;99.90;;;;;;5070845;28;20048;-71
2022/09/22 08:53:42;;;;;;;6.75;3.08;;;15.90;99.90;;;;;;5106422;28;20052;-71
2022/09/22 08:56:29;;;;;;;9.57;3.50;;;16.10;99.90;;;;;;5076855;28;20059;-71
2022/09/22 08:59:16;;;;;;;6.32;2.50;;;16.30;99.90;;;;;;5056535;28;20478;-70
2022/09/22 09:02:23;;;;;;;5.30;2.50;;;16.50;99.90;;;;;;5057753;28;20033;-71
2022/09/22 09:05:26;;;;;;;8.73;2.53;;;16.70;99.90;;;;;;5066811;28;20040;-73
2022/09/22 09:07:56;;;;;;;6.15;2.80;;;16.80;99.90;;;;;;5070946;28;20071;-71
2022/09/22 09:10:52;;;;;;;11.35;3.20;;;17.00;99.90;;;;;;5080834;28;20546;-72
2022/09/22 09:13:27;;;;;;;6.53;2.60;;;17.10;99.90;;;;;;5101515;28;20056;-72
2022/09/22 09:16:02;;;;;;;6.00;2.75;;;17.20;99.90;;;;;;5063097;28;20049;-68
2022/09/22 09:18:32;;;;;;;8.98;2.92;;;17.30;99.90;;;;;;5065642;28;20048;-74
2022/09/22 09:21:01;;;;;;;7.20;2.72;;;17.40;99.90;;;;;;5079774;28;20101;-72
2022/09/22 09:23:34;;;;;;;7.55;2.42;;;17.60;99.90;;;;;;5074986;28;20060;-71
2022/09/22 09:26:01;;;;;;;6.97;2.72;;;17.70;99.90;;;;;;5062557;28;20053;-72
2022/09/22 09:28:34;;;;;;;6.03;2.53;;;17.80;99.90;;;;;;5086790;28;20047;-74
2022/09/22 09:31:21;;;;;;;7.30;2.22;;;17.90;99.90;;;;;;5090853;28;20062;-71
2022/09/22 09:33:53;;;;;;;8.50;2.63;;;18.10;99.90;;;;;;5094366;28;20109;-72
2022/09/22 09:36:22;;;;;;;9.30;2.20;;;18.20;99.90;;;;;;5094219;28;20044;-71
2022/09/22 09:39:08;;;;;;;4.03;1.90;;;18.30;99.90;;;;;;5087206;28;20071;-75
2022/09/22 09:41:35;;;;;;;6.10;2.00;;;18.50;99.90;;;;;;5085528;28;20490;-74
2022/09/22 09:44:02;;;;;;;4.30;2.10;;;18.60;99.90;;;;;;5077484;28;20071;-76
2022/09/22 09:46:40;;;;;;;8.15;2.30;;;18.80;99.90;;;;;;5082121;28;20048;-76
2022/09/22 09:49:13;;;;;;;3.72;1.85;;;19.00;99.90;;;;;;5075186;28;20098;-76
2022/09/22 09:51:44;;;;;;;4.75;2.10;;;19.10;99.60;;;;;;5079998;28;20036;-77
2022/09/22 09:54:16;;;;;;;3.50;1.40;;;19.20;99.20;;;;;;5087485;28;20032;-75
2022/09/22 09:57:07;;;;;;;4.57;1.83;;;19.30;98.00;;;;;;5079628;28;20440;-75
2022/09/22 10:02:38;;;;;;;3.88;1.67;;;19.60;98.50;;;;;;5059398;28;20051;-77
2022/09/22 10:05:16;;;;;;;5.75;1.98;;;19.70;96.30;;;;;;5078750;28;20040;-76
2022/09/22 10:07:44;;;;;;;5.43;2.47;;;19.80;96.50;;;;;;5067534;28;20531;-75
2022/09/22 10:10:32;;;;;;;6.95;2.30;;;20.00;96.60;;;;;;5059802;28;20037;-77
2022/09/22 10:13:04;;;;;;;6.17;2.03;;;20.10;94.00;;;;;;5083676;28;20044;-76
2022/09/22 10:15:36;;;;;;;7.07;2.30;;;20.30;94.40;;;;;;5076938;28;20044;-77
2022/09/22 10:18:23;;;;;;;4.47;2.10;;;20.40;94.70;;;;;;5079093;28;20040;-75
2022/09/22 10:21:03;;;;;;;4.93;1.92;;;20.60;94.00;;;;;;5079671;28;20036;-74
2022/09/22 10:23:31;;;;;;;8.20;2.20;;;20.80;92.30;;;;;;5078209;28;20040;-75
2022/09/22 10:26:21;;;;;;;9.52;2.97;;;20.90;93.10;;;;;;5063123;28;20091;-77
2022/09/22 10:29:22;;;;;;;5.32;2.28;;;21.20;92.00;;;;;;5070772;28;20540;-74
2022/09/22 10:32:01;;;;;;;4.93;2.42;;;21.50;90.70;;;;;;5027714;28;20084;-75
2022/09/22 10:34:36;;;;;;;5.28;2.53;;;21.70;90.10;;;;;;5075283;28;20559;-73
2022/09/22 10:37:09;;;;;;;5.32;2.50;;;21.90;89.90;;;;;;5075212;28;20032;-74
2022/09/22 10:39:43;;;;;;;6.05;2.80;;;22.00;89.40;;;;;;5068011;28;20068;-74
2022/09/22 10:42:20;;;;;;;7.85;2.72;;;22.10;87.60;;;;;;5085436;28;20040;-77
2022/09/22 10:44:46;;;;;;;15.70;2.45;;;22.40;86.90;;;;;;5077793;28;20060;-76
2022/09/22 10:47:25;;;;;;;7.10;2.83;;;22.70;88.10;;;;;;5074580;28;20051;-75
2022/09/22 10:50:03;;;;;;;6.20;2.20;;;23.00;84.80;;;;;;5086778;28;20485;-73
2022/09/22 10:52:50;;;;;;;5.03;2.10;;;23.10;82.60;;;;;;5094300;28;20055;-70
2022/09/22 10:55:33;;;;;;;6.88;1.83;;;23.30;79.50;;;;;;5072676;28;20029;-75
2022/09/22 10:58:08;;;;;;;6.07;1.60;;;23.40;77.50;;;;;;5097095;28;20028;-74
2022/09/22 11:00:39;;;;;;;8.90;2.25;;;23.40;78.30;;;;;;5041273;28;20426;-74
2022/09/22 11:03:23;;;;;;;5.53;2.00;;;23.60;80.20;;;;;;5086101;28;20047;-76
2022/09/22 11:14:51;;;;;;;9.07;2.00;;;24.30;71.50;;;;;;5074691;28;20410;-71
2022/09/22 11:17:39;;;;;;;4.72;1.77;;;24.30;73.70;;;;;;5079843;28;20059;-70
2022/09/22 11:20:21;;;;;;;3.72;1.90;;;24.10;71.40;;;;;;5085453;28;20119;-73
2022/09/22 11:23:20;;;;;;;5.07;1.75;;;23.60;71.50;;;;;;5088294;28;20048;-75
2022/09/22 11:26:24;;;;;;;3.72;2.33;;;23.30;72.70;;;;;;5078913;28;20048;-75
2022/09/22 11:29:14;;;;;;;9.75;2.13;;;23.40;74.30;;;;;;5089596;28;20060;-76
2022/09/22 11:31:47;;;;;;;5.85;2.17;;;23.20;73.70;;;;;;5060304;28;20089;-76
2022/09/22 11:34:23;;;;;;;4.75;2.00;;;23.30;74.40;;;;;;5080069;28;20032;-75
2022/09/22 11:37:24;;;;;;;6.38;2.10;;;23.40;73.90;;;;;;5088534;28;20040;-78
2022/09/22 11:39:58;;;;;;;6.93;2.30;;;23.40;72.40;;;;;;5078531;28;20032;-72
2022/09/22 11:42:51;;;;;;;6.95;2.20;;;23.50;71.30;;;;;;5074065;28;20052;-71
2022/09/22 11:45:29;;;;;;;7.63;2.50;;;23.50;71.90;;;;;;5075853;28;20389;-68
2022/09/22 11:48:15;;;;;;;5.10;2.00;;;23.20;69.90;;;;;;5086964;28;20067;-72
2022/09/22 11:51:21;;;;;;;8.63;2.30;;;23.00;71.60;;;;;;5076968;28;20089;-74
2022/09/22 11:54:18;;;;;;;10.38;3.00;;;22.50;70.20;;;;;;5070347;28;20067;-73
2022/09/22 11:56:49;;;;;;;6.18;2.25;;;22.20;72.00;;;;;;5074907;28;20074;-72
2022/09/22 11:59:31;;;;;;;7.32;2.80;;;22.60;72.70;;;;;;5086762;28;20075;-76
2022/09/22 12:02:03;;;;;;;5.90;2.92;;;22.60;70.60;;;;;;5088388;28;20085;-72
2022/09/22 12:04:41;;;;;;;7.22;2.80;;;22.40;72.70;;;;;;5055979;28;20127;-76
2022/09/22 12:07:13;;;;;;;;;;;22.60;72.20;;;;;;5075836;28;20045;-76
2022/09/22 12:09:47;;;;;;;8.70;3.45;;;22.60;70.40;;;;;;5073865;28;19920;-74
2022/09/22 12:12:17;;;;;;;9.18;3.70;;;22.90;72.50;;;;;;5075040;28;20044;-74
2022/09/22 12:14:47;;;;;;;8.60;3.50;;;22.80;69.90;;;;;;5081093;28;20045;-79
2022/09/22 12:17:22;;;;;;;8.00;3.40;;;22.50;70.90;;;;;;5078622;28;20502;-74
2022/09/22 12:19:52;;;;;;;8.10;3.13;;;22.50;70.80;;;;;;5078641;28;20046;-77
2022/09/22 12:22:36;;;;;;;7.63;3.65;;;22.40;71.50;;;;;;5079327;28;20087;-79
2022/09/22 12:25:02;;;;;;;3.50;2.70;;;22.10;70.70;;;;;;5081684;28;20043;-76
2022/09/22 12:27:29;;;;;;;9.88;3.42;;;21.60;71.40;;;;;;5073186;28;20045;-75
2022/09/22 12:29:56;;;;;;;5.20;2.75;;;21.10;72.30;;;;;;5085942;28;20083;-74
2022/09/22 12:32:50;;;;;;;10.75;3.38;;;20.60;72.80;;;;;;5090832;28;20402;-77
2022/09/22 12:35:27;;;;;;;8.40;3.15;;;20.20;74.00;;;;;;5077031;28;20050;-76
2022/09/22 12:37:54;;;;;;;9.20;3.50;;;19.90;75.00;;;;;;5090005;28;20047;-76
2022/09/22 12:40:29;;;;;;;7.03;2.97;;;19.90;76.30;;;;;;5061341;28;20568;-70
2022/09/22 12:42:58;;;;;;;10.75;3.65;;;20.20;75.70;;;;;;5081306;28;20040;-76
2022/09/22 12:45:29;;;;;;;4.70;2.83;;;20.70;76.10;;;;;;5054386;28;20845;-76
2022/09/22 12:47:57;;;;;;;12.30;3.22;;;21.20;76.10;;;;;;5089585;28;20455;-77
2022/09/22 12:50:23;;;;;;;4.97;3.25;;;21.40;74.60;;;;;;5070150;28;20053;-76
2022/09/22 12:52:52;;;;;;;4.68;2.80;;;21.40;74.00;;;;;;5072901;28;20040;-77
2022/09/22 12:55:27;;;;;;;6.40;2.97;;;21.00;73.60;;;;;;5081949;28;20036;-77
2022/09/22 12:57:56;;;;;;;6.35;3.00;;;20.50;74.40;;;;;;5084872;28;20074;-78
2022/09/22 13:00:39;;;;;;;6.57;3.45;;;20.20;75.10;;;;;;5092996;28;20509;-73
2022/09/22 13:03:23;;;;;;;7.15;2.70;;;19.90;74.90;;;;;;5085106;28;20170;-78
2022/09/22 13:05:57;;;;;;;7.60;3.25;;;19.70;77.00;;;;;;5077226;28;20197;-77
2022/09/22 13:08:29;;;;;;;7.40;2.72;;;19.60;76.60;;;;;;5097358;28;20035;-78
2022/09/22 13:11:03;;;;;;;6.32;3.40;;;19.40;78.10;;;;;;5045602;28;20464;-77
2022/09/22 13:13:32;;;;;;;6.50;3.13;;;19.40;78.30;;;;;;5074799;28;20040;-77
2022/09/22 13:16:00;;;;;;;6.40;3.13;;;19.30;77.60;;;;;;5054737;28;20047;-80
2022/09/22 13:18:38;;;;;;;9.02;3.53;;;19.30;77.20;;;;;;5066165;28;20067;-77
2022/09/22 13:21:12;;;;;;;8.80;3.40;;;19.20;78.50;;;;;;5090074;28;20036;-73
2022/09/22 13:23:53;;;;;;;6.88;3.10;;;19.10;76.90;;;;;;5085965;28;20059;-74
2022/09/22 13:26:37;;;;;;;8.20;3.22;;;19.00;76.90;;;;;;5067085;28;20093;-74
2022/09/22 13:29:11;;;;;;;7.75;3.05;;;19.00;77.10;;;;;;5060537;28;20040;-74
2022/09/22 13:31:49;;;;;;;8.65;4.45;;;18.90;78.90;;;;;;5078725;28;20075;-75
2022/09/22 13:34:28;;;;;;;10.75;3.47;;;18.80;77.80;;;;;;5076146;28;20043;-76
2022/09/22 13:37:23;;;;;;;8.60;3.67;;;18.60;78.90;;;;;;5071392;28;20490;-74
2022/09/22 13:39:51;;;;;;;7.57;3.60;;;18.60;78.30;;;;;;5050384;28;20513;-76
2022/09/22 13:42:30;;;;;;;11.25;3.78;;;18.60;79.30;;;;;;5073267;28;20605;-76